sensor_id;sensor_type;location;lat;lon;timestamp;P1;durP1;ratioP1;P2;durP2;ratioP2
32038;SDS011;18549;42.286;22.688;2023-01-05T00:00:52;122.77;;;75.00;;
32038;SDS011;18549;42.286;22.688;2023-01-05T00:03:19;107.07;;;70.77;;
32038;SDS011;18549;42.286;22.688;2023-01-05T00:05:46;107.77;;;69.87;;
32038;SDS011;18549;42.286;22.688;2023-01-05T00:08:17;108.37;;;72.03;;
32038;SDS011;18549;42.286;22.688;2023-01-05T00:10:44;117.83;;;76.40;;
32038;SDS011;18549;42.286;22.688;2023-01-05T00:13:28;112.83;;;74.53;;
32038;SDS011;18549;42.286;22.688;2023-01-05T00:16:13;111.20;;;74.77;;
32038;SDS011;18549;42.286;22.688;2023-01-05T00:18:58;119.40;;;73.80;;
32038;SDS011;18549;42.286;22.688;2023-01-05T00:21:42;113.40;;;73.47;;
32038;SDS011;18549;42.286;22.688;2023-01-05T00:24:28;114.90;;;70.37;;
32038;SDS011;18549;42.286;22.688;2023-01-05T00:26:55;109.60;;;74.83;;
32038;SDS011;18549;42.286;22.688;2023-01-05T00:29:22;120.60;;;76.53;;
32038;SDS011;18549;42.286;22.688;2023-01-05T00:31:49;113.97;;;75.20;;
32038;SDS011;18549;42.286;22.688;2023-01-05T00:34:16;128.33;;;80.97;;
32038;SDS011;18549;42.286;22.688;2023-01-05T00:36:43;160.83;;;89.97;;
32038;SDS011;18549;42.286;22.688;2023-01-05T00:39:10;133.33;;;76.73;;
32038;SDS011;18549;42.286;22.688;2023-01-05T00:41:38;149.30;;;82.33;;
32038;SDS011;18549;42.286;22.688;2023-01-05T00:44:05;125.07;;;72.30;;
32038;SDS011;18549;42.286;22.688;2023-01-05T00:46:34;102.83;;;62.47;;
32038;SDS011;18549;42.286;22.688;2023-01-05T00:49:01;116.03;;;67.20;;
32038;SDS011;18549;42.286;22.688;2023-01-05T00:51:28;93.50;;;53.67;;
32038;SDS011;18549;42.286;22.688;2023-01-05T00:53:55;80.03;;;49.03;;
32038;SDS011;18549;42.286;22.688;2023-01-05T00:56:21;123.80;;;71.93;;
32038;SDS011;18549;42.286;22.688;2023-01-05T00:58:52;131.47;;;76.47;;
32038;SDS011;18549;42.286;22.688;2023-01-05T01:01:20;133.40;;;73.83;;
32038;SDS011;18549;42.286;22.688;2023-01-05T01:03:47;123.30;;;74.10;;
32038;SDS011;18549;42.286;22.688;2023-01-05T01:06:14;125.40;;;72.27;;
32038;SDS011;18549;42.286;22.688;2023-01-05T01:08:41;117.53;;;69.30;;
32038;SDS011;18549;42.286;22.688;2023-01-05T01:11:08;111.83;;;67.50;;
32038;SDS011;18549;42.286;22.688;2023-01-05T01:13:36;110.27;;;65.47;;
32038;SDS011;18549;42.286;22.688;2023-01-05T01:16:06;99.10;;;58.73;;
32038;SDS011;18549;42.286;22.688;2023-01-05T01:18:34;91.33;;;55.17;;
32038;SDS011;18549;42.286;22.688;2023-01-05T01:21:01;87.17;;;54.27;;
32038;SDS011;18549;42.286;22.688;2023-01-05T01:23:27;96.63;;;58.33;;
32038;SDS011;18549;42.286;22.688;2023-01-05T01:25:54;100.10;;;56.97;;
32038;SDS011;18549;42.286;22.688;2023-01-05T01:28:22;86.33;;;54.97;;
32038;SDS011;18549;42.286;22.688;2023-01-05T01:30:49;79.30;;;50.50;;
32038;SDS011;18549;42.286;22.688;2023-01-05T01:33:17;86.00;;;53.93;;
32038;SDS011;18549;42.286;22.688;2023-01-05T01:35:44;90.90;;;55.43;;
32038;SDS011;18549;42.286;22.688;2023-01-05T01:38:13;91.87;;;54.57;;
32038;SDS011;18549;42.286;22.688;2023-01-05T01:40:40;95.80;;;58.47;;
32038;SDS011;18549;42.286;22.688;2023-01-05T01:43:11;95.27;;;55.73;;
32038;SDS011;18549;42.286;22.688;2023-01-05T01:45:38;81.97;;;52.87;;
32038;SDS011;18549;42.286;22.688;2023-01-05T01:48:05;86.50;;;55.87;;
32038;SDS011;18549;42.286;22.688;2023-01-05T01:50:37;88.40;;;51.53;;
32038;SDS011;18549;42.286;22.688;2023-01-05T01:53:08;92.57;;;53.50;;
32038;SDS011;18549;42.286;22.688;2023-01-05T01:55:40;87.03;;;53.17;;
32038;SDS011;18549;42.286;22.688;2023-01-05T01:58:08;87.90;;;52.07;;
32038;SDS011;18549;42.286;22.688;2023-01-05T02:00:39;83.43;;;50.50;;
32038;SDS011;18549;42.286;22.688;2023-01-05T02:03:06;91.10;;;53.80;;
32038;SDS011;18549;42.286;22.688;2023-01-05T02:05:34;80.23;;;50.07;;
32038;SDS011;18549;42.286;22.688;2023-01-05T02:08:03;170.63;;;87.80;;
32038;SDS011;18549;42.286;22.688;2023-01-05T02:10:39;159.70;;;87.37;;
32038;SDS011;18549;42.286;22.688;2023-01-05T02:13:18;148.20;;;82.80;;
32038;SDS011;18549;42.286;22.688;2023-01-05T02:15:54;123.70;;;72.40;;
32038;SDS011;18549;42.286;22.688;2023-01-05T02:18:35;133.93;;;78.43;;
32038;SDS011;18549;42.286;22.688;2023-01-05T02:21:16;122.13;;;72.37;;
32038;SDS011;18549;42.286;22.688;2023-01-05T02:27:03;121.00;;;70.60;;
32038;SDS011;18549;42.286;22.688;2023-01-05T02:32:59;114.00;;;65.43;;
32038;SDS011;18549;42.286;22.688;2023-01-05T02:35:37;99.53;;;61.97;;
32038;SDS011;18549;42.286;22.688;2023-01-05T02:38:13;92.93;;;58.93;;
32038;SDS011;18549;42.286;22.688;2023-01-05T02:40:46;87.63;;;57.90;;
32038;SDS011;18549;42.286;22.688;2023-01-05T02:43:16;87.47;;;58.23;;
32038;SDS011;18549;42.286;22.688;2023-01-05T02:45:45;95.70;;;60.97;;
32038;SDS011;18549;42.286;22.688;2023-01-05T02:48:15;102.00;;;61.03;;
32038;SDS011;18549;42.286;22.688;2023-01-05T02:50:42;97.83;;;58.83;;
32038;SDS011;18549;42.286;22.688;2023-01-05T02:53:16;86.50;;;58.20;;
32038;SDS011;18549;42.286;22.688;2023-01-05T02:55:47;91.10;;;59.23;;
32038;SDS011;18549;42.286;22.688;2023-01-05T02:58:18;99.70;;;62.37;;
32038;SDS011;18549;42.286;22.688;2023-01-05T03:00:49;100.60;;;59.93;;
32038;SDS011;18549;42.286;22.688;2023-01-05T03:03:22;138.83;;;74.70;;
32038;SDS011;18549;42.286;22.688;2023-01-05T03:05:55;155.27;;;81.23;;
32038;SDS011;18549;42.286;22.688;2023-01-05T03:08:26;136.87;;;79.03;;
32038;SDS011;18549;42.286;22.688;2023-01-05T03:10:59;119.57;;;70.83;;
32038;SDS011;18549;42.286;22.688;2023-01-05T03:13:46;108.47;;;67.93;;
32038;SDS011;18549;42.286;22.688;2023-01-05T03:16:18;103.33;;;66.63;;
32038;SDS011;18549;42.286;22.688;2023-01-05T03:18:51;99.73;;;63.87;;
32038;SDS011;18549;42.286;22.688;2023-01-05T03:21:38;95.80;;;61.07;;
32038;SDS011;18549;42.286;22.688;2023-01-05T03:24:23;92.87;;;59.57;;
32038;SDS011;18549;42.286;22.688;2023-01-05T03:27:07;87.80;;;54.07;;
32038;SDS011;18549;42.286;22.688;2023-01-05T03:29:52;89.13;;;54.40;;
32038;SDS011;18549;42.286;22.688;2023-01-05T03:32:39;96.10;;;59.43;;
32038;SDS011;18549;42.286;22.688;2023-01-05T03:35:30;82.23;;;55.13;;
32038;SDS011;18549;42.286;22.688;2023-01-05T03:37:59;86.80;;;53.97;;
32038;SDS011;18549;42.286;22.688;2023-01-05T03:40:36;84.37;;;57.17;;
32038;SDS011;18549;42.286;22.688;2023-01-05T03:43:04;82.70;;;54.67;;
32038;SDS011;18549;42.286;22.688;2023-01-05T03:45:40;90.53;;;56.20;;
32038;SDS011;18549;42.286;22.688;2023-01-05T03:48:09;82.27;;;56.03;;
32038;SDS011;18549;42.286;22.688;2023-01-05T03:50:37;87.43;;;57.23;;
32038;SDS011;18549;42.286;22.688;2023-01-05T03:53:04;84.63;;;54.27;;
32038;SDS011;18549;42.286;22.688;2023-01-05T03:55:32;87.40;;;56.27;;
32038;SDS011;18549;42.286;22.688;2023-01-05T03:58:00;92.60;;;56.43;;
32038;SDS011;18549;42.286;22.688;2023-01-05T04:00:27;91.17;;;57.00;;
32038;SDS011;18549;42.286;22.688;2023-01-05T04:02:54;99.50;;;61.27;;
32038;SDS011;18549;42.286;22.688;2023-01-05T04:05:20;78.70;;;51.47;;
32038;SDS011;18549;42.286;22.688;2023-01-05T04:07:56;68.40;;;44.90;;
32038;SDS011;18549;42.286;22.688;2023-01-05T04:10:23;58.60;;;38.93;;
32038;SDS011;18549;42.286;22.688;2023-01-05T04:12:50;57.17;;;40.43;;
32038;SDS011;18549;42.286;22.688;2023-01-05T04:15:17;66.63;;;44.50;;
32038;SDS011;18549;42.286;22.688;2023-01-05T04:17:43;67.60;;;45.43;;
32038;SDS011;18549;42.286;22.688;2023-01-05T04:20:10;68.57;;;45.83;;
32038;SDS011;18549;42.286;22.688;2023-01-05T04:22:37;76.23;;;48.53;;
32038;SDS011;18549;42.286;22.688;2023-01-05T04:25:06;79.43;;;50.20;;
32038;SDS011;18549;42.286;22.688;2023-01-05T04:27:33;82.40;;;51.43;;
32038;SDS011;18549;42.286;22.688;2023-01-05T04:30:00;83.47;;;52.50;;
32038;SDS011;18549;42.286;22.688;2023-01-05T04:32:27;78.87;;;48.10;;
32038;SDS011;18549;42.286;22.688;2023-01-05T04:34:54;77.50;;;47.10;;
32038;SDS011;18549;42.286;22.688;2023-01-05T04:37:21;86.33;;;52.60;;
32038;SDS011;18549;42.286;22.688;2023-01-05T04:39:49;86.53;;;51.80;;
32038;SDS011;18549;42.286;22.688;2023-01-05T04:42:17;80.23;;;50.00;;
32038;SDS011;18549;42.286;22.688;2023-01-05T04:44:44;80.70;;;48.53;;
32038;SDS011;18549;42.286;22.688;2023-01-05T04:47:11;74.07;;;47.57;;
32038;SDS011;18549;42.286;22.688;2023-01-05T04:49:37;80.53;;;49.67;;
32038;SDS011;18549;42.286;22.688;2023-01-05T04:52:04;77.90;;;49.27;;
32038;SDS011;18549;42.286;22.688;2023-01-05T04:54:31;70.10;;;46.80;;
32038;SDS011;18549;42.286;22.688;2023-01-05T04:56:58;73.83;;;46.30;;
32038;SDS011;18549;42.286;22.688;2023-01-05T04:59:26;71.07;;;46.10;;
32038;SDS011;18549;42.286;22.688;2023-01-05T05:01:53;67.67;;;45.67;;
32038;SDS011;18549;42.286;22.688;2023-01-05T05:04:20;70.97;;;48.13;;
32038;SDS011;18549;42.286;22.688;2023-01-05T05:06:46;69.53;;;43.10;;
32038;SDS011;18549;42.286;22.688;2023-01-05T05:09:13;68.90;;;43.27;;
32038;SDS011;18549;42.286;22.688;2023-01-05T05:11:40;71.60;;;48.67;;
32038;SDS011;18549;42.286;22.688;2023-01-05T05:14:07;74.97;;;49.27;;
32038;SDS011;18549;42.286;22.688;2023-01-05T05:16:35;69.83;;;47.23;;
32038;SDS011;18549;42.286;22.688;2023-01-05T05:19:02;122.47;;;72.47;;
32038;SDS011;18549;42.286;22.688;2023-01-05T05:21:28;106.50;;;64.00;;
32038;SDS011;18549;42.286;22.688;2023-01-05T05:23:55;114.30;;;64.47;;
32038;SDS011;18549;42.286;22.688;2023-01-05T05:26:22;107.60;;;62.67;;
32038;SDS011;18549;42.286;22.688;2023-01-05T05:28:48;98.43;;;62.33;;
32038;SDS011;18549;42.286;22.688;2023-01-05T05:31:15;106.23;;;61.60;;
32038;SDS011;18549;42.286;22.688;2023-01-05T05:33:43;101.93;;;61.60;;
32038;SDS011;18549;42.286;22.688;2023-01-05T05:36:10;103.90;;;65.13;;
32038;SDS011;18549;42.286;22.688;2023-01-05T05:38:37;106.17;;;63.63;;
32038;SDS011;18549;42.286;22.688;2023-01-05T05:41:04;102.57;;;60.63;;
32038;SDS011;18549;42.286;22.688;2023-01-05T05:43:30;105.83;;;65.37;;
32038;SDS011;18549;42.286;22.688;2023-01-05T05:45:58;102.13;;;62.50;;
32038;SDS011;18549;42.286;22.688;2023-01-05T05:48:24;99.97;;;62.37;;
32038;SDS011;18549;42.286;22.688;2023-01-05T05:51:00;99.33;;;59.60;;
32038;SDS011;18549;42.286;22.688;2023-01-05T05:53:29;105.67;;;60.90;;
32038;SDS011;18549;42.286;22.688;2023-01-05T05:55:56;99.23;;;62.40;;
32038;SDS011;18549;42.286;22.688;2023-01-05T05:58:23;86.63;;;55.93;;
32038;SDS011;18549;42.286;22.688;2023-01-05T06:00:50;90.20;;;57.50;;
32038;SDS011;18549;42.286;22.688;2023-01-05T06:03:16;90.57;;;56.20;;
32038;SDS011;18549;42.286;22.688;2023-01-05T06:05:43;108.33;;;62.80;;
32038;SDS011;18549;42.286;22.688;2023-01-05T06:08:12;98.30;;;62.27;;
32038;SDS011;18549;42.286;22.688;2023-01-05T06:10:38;93.87;;;62.43;;
32038;SDS011;18549;42.286;22.688;2023-01-05T06:13:05;92.57;;;58.17;;
32038;SDS011;18549;42.286;22.688;2023-01-05T06:15:33;92.57;;;61.13;;
32038;SDS011;18549;42.286;22.688;2023-01-05T06:18:00;94.77;;;62.10;;
32038;SDS011;18549;42.286;22.688;2023-01-05T06:20:28;122.03;;;79.07;;
32038;SDS011;18549;42.286;22.688;2023-01-05T06:22:54;110.60;;;66.27;;
32038;SDS011;18549;42.286;22.688;2023-01-05T06:25:23;108.27;;;67.37;;
32038;SDS011;18549;42.286;22.688;2023-01-05T06:27:49;114.73;;;72.37;;
32038;SDS011;18549;42.286;22.688;2023-01-05T06:30:16;116.73;;;74.30;;
32038;SDS011;18549;42.286;22.688;2023-01-05T06:32:44;134.03;;;79.80;;
32038;SDS011;18549;42.286;22.688;2023-01-05T06:35:11;132.63;;;80.70;;
32038;SDS011;18549;42.286;22.688;2023-01-05T06:37:38;157.73;;;89.97;;
32038;SDS011;18549;42.286;22.688;2023-01-05T06:40:06;158.40;;;93.20;;
32038;SDS011;18549;42.286;22.688;2023-01-05T06:42:39;149.17;;;91.77;;
32038;SDS011;18549;42.286;22.688;2023-01-05T06:45:06;151.67;;;90.27;;
32038;SDS011;18549;42.286;22.688;2023-01-05T06:47:35;143.60;;;87.10;;
32038;SDS011;18549;42.286;22.688;2023-01-05T06:50:02;158.80;;;93.23;;
32038;SDS011;18549;42.286;22.688;2023-01-05T06:52:29;171.40;;;99.17;;
32038;SDS011;18549;42.286;22.688;2023-01-05T06:55:00;160.63;;;93.60;;
32038;SDS011;18549;42.286;22.688;2023-01-05T06:57:27;159.60;;;98.30;;
32038;SDS011;18549;42.286;22.688;2023-01-05T06:59:55;130.67;;;83.40;;
32038;SDS011;18549;42.286;22.688;2023-01-05T07:02:22;135.77;;;87.03;;
32038;SDS011;18549;42.286;22.688;2023-01-05T07:04:49;156.73;;;93.33;;
32038;SDS011;18549;42.286;22.688;2023-01-05T07:07:15;158.97;;;92.63;;
32038;SDS011;18549;42.286;22.688;2023-01-05T07:09:42;160.17;;;98.03;;
32038;SDS011;18549;42.286;22.688;2023-01-05T07:12:13;149.70;;;94.23;;
32038;SDS011;18549;42.286;22.688;2023-01-05T07:14:40;154.37;;;98.20;;
32038;SDS011;18549;42.286;22.688;2023-01-05T07:17:08;154.53;;;95.67;;
32038;SDS011;18549;42.286;22.688;2023-01-05T07:19:36;158.93;;;95.67;;
32038;SDS011;18549;42.286;22.688;2023-01-05T07:22:03;147.77;;;89.43;;
32038;SDS011;18549;42.286;22.688;2023-01-05T07:24:30;152.03;;;95.40;;
32038;SDS011;18549;42.286;22.688;2023-01-05T07:26:56;136.30;;;89.33;;
32038;SDS011;18549;42.286;22.688;2023-01-05T07:29:24;145.87;;;90.20;;
32038;SDS011;18549;42.286;22.688;2023-01-05T07:31:51;147.13;;;96.87;;
32038;SDS011;18549;42.286;22.688;2023-01-05T07:34:20;145.20;;;89.73;;
32038;SDS011;18549;42.286;22.688;2023-01-05T07:36:47;145.40;;;91.87;;
32038;SDS011;18549;42.286;22.688;2023-01-05T07:39:14;144.37;;;94.57;;
32038;SDS011;18549;42.286;22.688;2023-01-05T07:41:41;146.77;;;94.40;;
32038;SDS011;18549;42.286;22.688;2023-01-05T07:44:08;153.63;;;99.00;;
32038;SDS011;18549;42.286;22.688;2023-01-05T07:46:35;147.33;;;91.37;;
32038;SDS011;18549;42.286;22.688;2023-01-05T07:49:02;141.30;;;93.17;;
32038;SDS011;18549;42.286;22.688;2023-01-05T07:51:30;151.07;;;100.77;;
32038;SDS011;18549;42.286;22.688;2023-01-05T07:53:57;157.53;;;103.43;;
32038;SDS011;18549;42.286;22.688;2023-01-05T07:56:24;151.30;;;97.83;;
32038;SDS011;18549;42.286;22.688;2023-01-05T07:58:51;153.03;;;98.63;;
32038;SDS011;18549;42.286;22.688;2023-01-05T08:01:17;155.73;;;99.70;;
32038;SDS011;18549;42.286;22.688;2023-01-05T08:03:44;144.83;;;93.20;;
32038;SDS011;18549;42.286;22.688;2023-01-05T08:06:12;106.70;;;69.40;;
32038;SDS011;18549;42.286;22.688;2023-01-05T08:08:41;96.37;;;68.13;;
32038;SDS011;18549;42.286;22.688;2023-01-05T08:11:10;88.53;;;60.23;;
32038;SDS011;18549;42.286;22.688;2023-01-05T08:13:39;81.53;;;56.17;;
32038;SDS011;18549;42.286;22.688;2023-01-05T08:16:23;81.03;;;53.93;;
32038;SDS011;18549;42.286;22.688;2023-01-05T08:18:50;80.93;;;55.03;;
32038;SDS011;18549;42.286;22.688;2023-01-05T08:21:17;77.13;;;53.00;;
32038;SDS011;18549;42.286;22.688;2023-01-05T08:23:45;84.40;;;55.80;;
32038;SDS011;18549;42.286;22.688;2023-01-05T08:26:12;89.37;;;57.60;;
32038;SDS011;18549;42.286;22.688;2023-01-05T08:28:43;96.23;;;56.80;;
32038;SDS011;18549;42.286;22.688;2023-01-05T08:31:11;73.17;;;51.80;;
32038;SDS011;18549;42.286;22.688;2023-01-05T08:33:40;69.50;;;47.30;;
32038;SDS011;18549;42.286;22.688;2023-01-05T08:36:08;64.17;;;43.10;;
32038;SDS011;18549;42.286;22.688;2023-01-05T08:38:36;63.97;;;44.17;;
32038;SDS011;18549;42.286;22.688;2023-01-05T08:41:13;70.27;;;49.30;;
32038;SDS011;18549;42.286;22.688;2023-01-05T08:43:41;70.70;;;49.73;;
32038;SDS011;18549;42.286;22.688;2023-01-05T08:46:08;65.50;;;46.53;;
32038;SDS011;18549;42.286;22.688;2023-01-05T08:48:35;55.93;;;40.50;;
32038;SDS011;18549;42.286;22.688;2023-01-05T08:51:02;54.00;;;38.37;;
32038;SDS011;18549;42.286;22.688;2023-01-05T08:53:31;65.00;;;45.47;;
32038;SDS011;18549;42.286;22.688;2023-01-05T08:55:58;59.07;;;42.40;;
32038;SDS011;18549;42.286;22.688;2023-01-05T08:58:27;49.87;;;33.77;;
32038;SDS011;18549;42.286;22.688;2023-01-05T09:00:53;49.87;;;34.70;;
32038;SDS011;18549;42.286;22.688;2023-01-05T09:03:21;48.77;;;34.53;;
32038;SDS011;18549;42.286;22.688;2023-01-05T09:05:50;52.30;;;38.03;;
32038;SDS011;18549;42.286;22.688;2023-01-05T09:08:18;57.63;;;39.90;;
32038;SDS011;18549;42.286;22.688;2023-01-05T09:10:45;62.20;;;43.10;;
32038;SDS011;18549;42.286;22.688;2023-01-05T09:13:11;64.33;;;44.80;;
32038;SDS011;18549;42.286;22.688;2023-01-05T09:15:40;67.30;;;46.90;;
32038;SDS011;18549;42.286;22.688;2023-01-05T09:18:06;62.27;;;42.97;;
32038;SDS011;18549;42.286;22.688;2023-01-05T09:20:33;61.43;;;38.87;;
32038;SDS011;18549;42.286;22.688;2023-01-05T09:23:01;55.93;;;37.77;;
32038;SDS011;18549;42.286;22.688;2023-01-05T09:25:28;63.37;;;37.73;;
32038;SDS011;18549;42.286;22.688;2023-01-05T09:27:55;52.83;;;34.93;;
32038;SDS011;18549;42.286;22.688;2023-01-05T09:30:22;52.30;;;32.87;;
32038;SDS011;18549;42.286;22.688;2023-01-05T09:32:50;45.47;;;29.93;;
32038;SDS011;18549;42.286;22.688;2023-01-05T09:35:17;46.73;;;31.23;;
32038;SDS011;18549;42.286;22.688;2023-01-05T09:37:44;40.83;;;29.43;;
32038;SDS011;18549;42.286;22.688;2023-01-05T09:40:11;41.73;;;28.73;;
32038;SDS011;18549;42.286;22.688;2023-01-05T09:42:41;40.60;;;27.83;;
32038;SDS011;18549;42.286;22.688;2023-01-05T09:45:10;45.30;;;29.50;;
32038;SDS011;18549;42.286;22.688;2023-01-05T09:47:52;32.80;;;23.77;;
32038;SDS011;18549;42.286;22.688;2023-01-05T09:50:21;34.30;;;23.90;;
32038;SDS011;18549;42.286;22.688;2023-01-05T09:52:49;42.93;;;24.87;;
32038;SDS011;18549;42.286;22.688;2023-01-05T09:55:19;33.77;;;24.13;;
32038;SDS011;18549;42.286;22.688;2023-01-05T09:57:49;40.83;;;23.83;;
32038;SDS011;18549;42.286;22.688;2023-01-05T10:00:20;35.40;;;24.60;;
32038;SDS011;18549;42.286;22.688;2023-01-05T10:02:49;52.77;;;24.20;;
32038;SDS011;18549;42.286;22.688;2023-01-05T10:05:21;33.83;;;22.93;;
32038;SDS011;18549;42.286;22.688;2023-01-05T10:07:50;31.70;;;20.77;;
32038;SDS011;18549;42.286;22.688;2023-01-05T10:10:22;23.33;;;18.10;;
32038;SDS011;18549;42.286;22.688;2023-01-05T10:12:53;25.87;;;17.07;;
32038;SDS011;18549;42.286;22.688;2023-01-05T10:15:35;24.43;;;17.00;;
32038;SDS011;18549;42.286;22.688;2023-01-05T10:18:11;18.47;;;15.40;;
32038;SDS011;18549;42.286;22.688;2023-01-05T10:20:42;18.50;;;13.03;;
32038;SDS011;18549;42.286;22.688;2023-01-05T10:23:16;27.17;;;13.70;;
32038;SDS011;18549;42.286;22.688;2023-01-05T10:26:04;27.20;;;13.37;;
32038;SDS011;18549;42.286;22.688;2023-01-05T10:28:38;18.33;;;12.03;;
32038;SDS011;18549;42.286;22.688;2023-01-05T10:31:12;21.90;;;13.50;;
32038;SDS011;18549;42.286;22.688;2023-01-05T10:33:49;15.73;;;12.03;;
32038;SDS011;18549;42.286;22.688;2023-01-05T10:36:25;18.40;;;13.63;;
32038;SDS011;18549;42.286;22.688;2023-01-05T10:39:14;22.60;;;17.77;;
32038;SDS011;18549;42.286;22.688;2023-01-05T10:41:49;22.30;;;17.13;;
32038;SDS011;18549;42.286;22.688;2023-01-05T10:47:27;14.17;;;11.93;;
32038;SDS011;18549;42.286;22.688;2023-01-05T10:49:57;13.40;;;11.53;;
32038;SDS011;18549;42.286;22.688;2023-01-05T10:52:26;18.57;;;11.43;;
32038;SDS011;18549;42.286;22.688;2023-01-05T10:54:54;18.00;;;11.77;;
32038;SDS011;18549;42.286;22.688;2023-01-05T10:57:30;13.40;;;10.10;;
32038;SDS011;18549;42.286;22.688;2023-01-05T11:00:01;14.50;;;9.93;;
32038;SDS011;18549;42.286;22.688;2023-01-05T11:02:31;15.07;;;12.37;;
32038;SDS011;18549;42.286;22.688;2023-01-05T11:05:03;14.23;;;11.03;;
32038;SDS011;18549;42.286;22.688;2023-01-05T11:07:42;13.03;;;10.37;;
32038;SDS011;18549;42.286;22.688;2023-01-05T11:10:17;15.07;;;10.73;;
32038;SDS011;18549;42.286;22.688;2023-01-05T11:12:49;15.63;;;9.97;;
32038;SDS011;18549;42.286;22.688;2023-01-05T11:15:18;12.47;;;9.97;;
32038;SDS011;18549;42.286;22.688;2023-01-05T11:17:45;22.00;;;11.07;;
32038;SDS011;18549;42.286;22.688;2023-01-05T11:20:17;14.23;;;9.97;;
32038;SDS011;18549;42.286;22.688;2023-01-05T11:22:44;15.90;;;11.10;;
32038;SDS011;18549;42.286;22.688;2023-01-05T11:25:23;13.83;;;10.97;;
32038;SDS011;18549;42.286;22.688;2023-01-05T11:28:08;14.40;;;11.10;;
32038;SDS011;18549;42.286;22.688;2023-01-05T11:30:41;18.58;;;10.98;;
32038;SDS011;18549;42.286;22.688;2023-01-05T11:33:23;14.03;;;10.67;;
32038;SDS011;18549;42.286;22.688;2023-01-05T11:35:53;20.47;;;11.20;;
32038;SDS011;18549;42.286;22.688;2023-01-05T11:38:22;15.70;;;10.53;;
32038;SDS011;18549;42.286;22.688;2023-01-05T11:40:51;14.70;;;10.50;;
32038;SDS011;18549;42.286;22.688;2023-01-05T11:43:20;14.67;;;10.60;;
32038;SDS011;18549;42.286;22.688;2023-01-05T11:45:49;17.30;;;10.40;;
32038;SDS011;18549;42.286;22.688;2023-01-05T11:48:19;13.10;;;10.07;;
32038;SDS011;18549;42.286;22.688;2023-01-05T11:50:49;16.73;;;10.47;;
32038;SDS011;18549;42.286;22.688;2023-01-05T11:53:24;14.70;;;9.17;;
32038;SDS011;18549;42.286;22.688;2023-01-05T11:56:01;12.20;;;8.97;;
32038;SDS011;18549;42.286;22.688;2023-01-05T11:58:33;18.03;;;9.40;;
32038;SDS011;18549;42.286;22.688;2023-01-05T12:04:19;16.77;;;10.53;;
32038;SDS011;18549;42.286;22.688;2023-01-05T12:07:06;10.17;;;8.73;;
32038;SDS011;18549;42.286;22.688;2023-01-05T12:09:41;14.47;;;10.47;;
32038;SDS011;18549;42.286;22.688;2023-01-05T12:12:18;21.70;;;9.77;;
32038;SDS011;18549;42.286;22.688;2023-01-05T12:15:03;16.80;;;8.77;;
32038;SDS011;18549;42.286;22.688;2023-01-05T12:17:53;12.53;;;9.03;;
32038;SDS011;18549;42.286;22.688;2023-01-05T12:20:36;11.23;;;8.97;;
32038;SDS011;18549;42.286;22.688;2023-01-05T12:23:18;15.07;;;9.97;;
32038;SDS011;18549;42.286;22.688;2023-01-05T12:26:21;12.77;;;9.17;;
32038;SDS011;18549;42.286;22.688;2023-01-05T12:29:01;12.77;;;9.63;;
32038;SDS011;18549;42.286;22.688;2023-01-05T12:31:44;15.33;;;10.57;;
32038;SDS011;18549;42.286;22.688;2023-01-05T12:34:32;17.43;;;10.60;;
32038;SDS011;18549;42.286;22.688;2023-01-05T12:37:16;17.70;;;11.50;;
32038;SDS011;18549;42.286;22.688;2023-01-05T12:43:05;15.80;;;9.50;;
32038;SDS011;18549;42.286;22.688;2023-01-05T12:48:20;12.50;;;9.77;;
32038;SDS011;18549;42.286;22.688;2023-01-05T12:50:53;14.73;;;9.73;;
32038;SDS011;18549;42.286;22.688;2023-01-05T12:53:29;12.67;;;7.93;;
32038;SDS011;18549;42.286;22.688;2023-01-05T12:56:07;9.13;;;7.77;;
32038;SDS011;18549;42.286;22.688;2023-01-05T12:58:43;11.37;;;8.30;;
32038;SDS011;18549;42.286;22.688;2023-01-05T13:01:17;10.87;;;8.57;;
32038;SDS011;18549;42.286;22.688;2023-01-05T13:03:49;11.87;;;8.80;;
32038;SDS011;18549;42.286;22.688;2023-01-05T13:06:22;11.17;;;8.77;;
32038;SDS011;18549;42.286;22.688;2023-01-05T13:08:51;10.80;;;8.50;;
32038;SDS011;18549;42.286;22.688;2023-01-05T13:11:20;13.87;;;8.83;;
32038;SDS011;18549;42.286;22.688;2023-01-05T13:13:53;15.83;;;12.00;;
32038;SDS011;18549;42.286;22.688;2023-01-05T13:16:27;27.37;;;15.93;;
32038;SDS011;18549;42.286;22.688;2023-01-05T13:18:59;16.50;;;11.83;;
32038;SDS011;18549;42.286;22.688;2023-01-05T13:21:31;14.77;;;11.43;;
32038;SDS011;18549;42.286;22.688;2023-01-05T13:24:02;17.67;;;11.80;;
32038;SDS011;18549;42.286;22.688;2023-01-05T13:26:35;16.90;;;11.50;;
32038;SDS011;18549;42.286;22.688;2023-01-05T13:29:03;19.70;;;12.60;;
32038;SDS011;18549;42.286;22.688;2023-01-05T13:31:43;18.40;;;10.63;;
32038;SDS011;18549;42.286;22.688;2023-01-05T13:37:38;17.30;;;11.10;;
32038;SDS011;18549;42.286;22.688;2023-01-05T13:43:16;15.53;;;10.93;;
32038;SDS011;18549;42.286;22.688;2023-01-05T13:46:13;18.83;;;12.40;;
32038;SDS011;18549;42.286;22.688;2023-01-05T13:52:16;19.57;;;13.60;;
32038;SDS011;18549;42.286;22.688;2023-01-05T13:54:52;28.57;;;15.70;;
32038;SDS011;18549;42.286;22.688;2023-01-05T13:57:26;27.77;;;16.53;;
32038;SDS011;18549;42.286;22.688;2023-01-05T13:59:56;29.00;;;18.37;;
32038;SDS011;18549;42.286;22.688;2023-01-05T14:02:27;23.80;;;16.03;;
32038;SDS011;18549;42.286;22.688;2023-01-05T14:04:56;25.50;;;19.17;;
32038;SDS011;18549;42.286;22.688;2023-01-05T14:07:23;26.97;;;15.10;;
32038;SDS011;18549;42.286;22.688;2023-01-05T14:09:51;40.97;;;19.53;;
32038;SDS011;18549;42.286;22.688;2023-01-05T14:17:59;33.43;;;19.50;;
32038;SDS011;18549;42.286;22.688;2023-01-05T14:20:36;21.23;;;14.53;;
32038;SDS011;18549;42.286;22.688;2023-01-05T14:26:12;47.90;;;21.47;;
32038;SDS011;18549;42.286;22.688;2023-01-05T14:28:43;35.23;;;19.17;;
32038;SDS011;18549;42.286;22.688;2023-01-05T14:34:17;35.53;;;20.47;;
32038;SDS011;18549;42.286;22.688;2023-01-05T14:37:02;41.23;;;22.17;;
32038;SDS011;18549;42.286;22.688;2023-01-05T14:39:34;33.77;;;23.03;;
32038;SDS011;18549;42.286;22.688;2023-01-05T14:42:13;50.17;;;27.43;;
32038;SDS011;18549;42.286;22.688;2023-01-05T14:44:45;52.47;;;30.80;;
32038;SDS011;18549;42.286;22.688;2023-01-05T14:47:15;60.10;;;32.47;;
32038;SDS011;18549;42.286;22.688;2023-01-05T14:49:51;63.83;;;34.07;;
32038;SDS011;18549;42.286;22.688;2023-01-05T14:55:20;56.17;;;32.40;;
32038;SDS011;18549;42.286;22.688;2023-01-05T14:57:50;61.47;;;42.47;;
32038;SDS011;18549;42.286;22.688;2023-01-05T15:00:21;68.27;;;44.00;;
32038;SDS011;18549;42.286;22.688;2023-01-05T15:02:59;90.40;;;49.40;;
32038;SDS011;18549;42.286;22.688;2023-01-05T15:05:39;89.93;;;56.53;;
32038;SDS011;18549;42.286;22.688;2023-01-05T15:08:14;117.47;;;66.93;;
32038;SDS011;18549;42.286;22.688;2023-01-05T15:10:54;88.07;;;55.77;;